Time;durP1;ratioP1;P1;durP2;ratioP2;P2;SDS_P1;SDS_P2;PMS_P1;PMS_P2;Temp;Humidity;BMP_temperature;BMP_pressure;BME280_temperature;BME280_humidity;BME280_pressure;Samples;Min_cycle;Max_cycle;Signal;HPM_P1;HPM_P2
2023/05/28 00:01:13;;;;;;;5.90;2.92;;;14.20;82.50;;;;;;4989769;28;20055;-69
2023/05/28 00:03:41;;;;;;;8.43;2.40;;;14.10;83.00;;;;;;5020871;28;20040;-69
2023/05/28 00:06:07;;;;;;;5.50;2.35;;;14.00;83.70;;;;;;5019457;28;20330;-68
2023/05/28 00:08:33;;;;;;;8.07;2.97;;;13.90;84.60;;;;;;5013178;28;20060;-68
2023/05/28 00:11:00;;;;;;;7.13;3.05;;;13.80;84.90;;;;;;5000876;28;20328;-69
2023/05/28 00:13:30;;;;;;;9.77;3.60;;;13.70;85.60;;;;;;5011227;28;20033;-69
2023/05/28 00:15:56;;;;;;;8.18;2.42;;;13.70;86.40;;;;;;5010435;28;20036;-69
2023/05/28 00:18:23;;;;;;;6.97;2.60;;;13.70;86.90;;;;;;5008975;28;20033;-68
2023/05/28 00:20:50;;;;;;;11.60;4.15;;;13.70;87.30;;;;;;5003870;28;20033;-69
2023/05/28 00:23:16;;;;;;;12.13;4.90;;;13.60;88.20;;;;;;5031024;28;20037;-69
2023/05/28 00:25:43;;;;;;;11.55;5.10;;;13.60;90.30;;;;;;5019957;28;20889;-69
2023/05/28 00:28:09;;;;;;;11.30;4.10;;;13.60;91.10;;;;;;5016593;28;20037;-69
2023/05/28 00:30:36;;;;;;;11.73;4.18;;;13.60;91.10;;;;;;5002131;28;20033;-70
2023/05/28 00:33:02;;;;;;;10.30;4.22;;;13.60;91.70;;;;;;5011935;28;20048;-69
2023/05/28 00:35:28;;;;;;;13.38;5.15;;;13.60;91.90;;;;;;5029722;28;20548;-69
2023/05/28 00:37:55;;;;;;;8.90;3.22;;;13.60;92.40;;;;;;5014213;28;20471;-69
2023/05/28 00:40:21;;;;;;;12.23;3.58;;;13.60;92.70;;;;;;5005289;28;20329;-68
2023/05/28 00:42:48;;;;;;;11.00;4.25;;;13.60;92.90;;;;;;5015062;28;21119;-69
2023/05/28 00:45:14;;;;;;;7.57;3.22;;;13.50;93.30;;;;;;5004936;28;20041;-69
2023/05/28 00:47:42;;;;;;;11.00;4.55;;;13.50;93.80;;;;;;5006371;28;20055;-70
2023/05/28 00:50:09;;;;;;;11.55;3.42;;;13.50;94.20;;;;;;5009789;28;20033;-69
2023/05/28 00:52:36;;;;;;;10.68;4.72;;;13.50;94.60;;;;;;5011853;28;20470;-70
2023/05/28 00:55:12;;;;;;;13.35;4.80;;;13.50;95.20;;;;;;5014094;28;20056;-69
2023/05/28 00:57:39;;;;;;;13.63;4.53;;;13.50;96.00;;;;;;5012705;28;20518;-70
2023/05/28 01:00:06;;;;;;;14.85;4.47;;;13.50;96.60;;;;;;5019475;28;20041;-69
2023/05/28 01:02:32;;;;;;;12.30;4.95;;;13.50;97.40;;;;;;5011476;28;20041;-69
2023/05/28 01:04:58;;;;;;;13.32;5.18;;;13.50;98.20;;;;;;5021890;28;21601;-69
2023/05/28 01:07:25;;;;;;;15.20;5.00;;;13.40;98.90;;;;;;5021216;28;20037;-69
2023/05/28 01:09:51;;;;;;;15.35;5.63;;;13.40;99.90;;;;;;5012276;28;20495;-69
2023/05/28 01:12:18;;;;;;;16.02;5.70;;;13.30;99.90;;;;;;5011913;28;20040;-69
2023/05/28 01:14:45;;;;;;;12.48;5.00;;;13.30;99.90;;;;;;5024236;28;20029;-68
2023/05/28 01:17:14;;;;;;;12.63;4.10;;;13.20;99.90;;;;;;5011148;28;20036;-69
2023/05/28 01:19:42;;;;;;;10.73;4.38;;;13.20;99.90;;;;;;4991957;28;20384;-69
2023/05/28 01:22:15;;;;;;;17.63;5.82;;;13.10;99.90;;;;;;4994913;28;20040;-69
2023/05/28 01:24:43;;;;;;;11.02;4.32;;;13.10;99.90;;;;;;5000198;28;20036;-70
2023/05/28 01:27:10;;;;;;;11.48;4.50;;;13.10;99.90;;;;;;5022022;28;20786;-69
2023/05/28 01:29:36;;;;;;;14.43;5.13;;;13.00;99.90;;;;;;5017004;28;20056;-69
2023/05/28 01:32:03;;;;;;;17.30;5.22;;;13.00;99.90;;;;;;4994299;28;20025;-69
2023/05/28 01:34:30;;;;;;;13.85;4.68;;;13.00;99.90;;;;;;4979775;28;20043;-69
2023/05/28 01:37:10;;;;;;;14.45;4.88;;;13.00;99.90;;;;;;5009481;28;20037;-70
2023/05/28 01:39:44;;;;;;;14.35;4.47;;;13.00;99.90;;;;;;4973874;28;20045;-69
2023/05/28 01:42:12;;;;;;;12.13;4.90;;;12.90;99.90;;;;;;5011335;28;20036;-70
2023/05/28 01:44:40;;;;;;;13.23;4.72;;;12.90;99.90;;;;;;5012657;28;20449;-69
2023/05/28 01:47:07;;;;;;;10.35;4.25;;;12.90;99.90;;;;;;5003851;28;20471;-68
2023/05/28 01:49:36;;;;;;;13.38;4.68;;;12.90;99.90;;;;;;5015942;28;20029;-69
2023/05/28 01:52:04;;;;;;;19.95;7.05;;;12.90;99.90;;;;;;5014685;28;20546;-69
2023/05/28 01:54:32;;;;;;;12.50;5.22;;;12.80;99.90;;;;;;4980087;28;20045;-69
2023/05/28 01:56:58;;;;;;;17.35;5.70;;;12.80;99.90;;;;;;5011717;28;20530;-68
2023/05/28 01:59:25;;;;;;;13.80;4.72;;;12.80;99.90;;;;;;5006025;28;20104;-69
2023/05/28 02:01:51;;;;;;;15.77;5.40;;;12.80;99.90;;;;;;4978693;28;21069;-69
2023/05/28 02:04:18;;;;;;;14.68;5.03;;;12.80;99.90;;;;;;4996101;28;20440;-69
2023/05/28 02:06:45;;;;;;;10.75;5.30;;;12.70;99.90;;;;;;5019130;28;20056;-69
2023/05/28 02:09:12;;;;;;;11.40;4.35;;;12.70;99.90;;;;;;5021528;28;22125;-69
2023/05/28 02:11:42;;;;;;;11.60;4.38;;;12.70;99.90;;;;;;4995334;28;20368;-68
2023/05/28 02:14:13;;;;;;;14.15;4.70;;;12.70;99.90;;;;;;4993391;28;20041;-68
2023/05/28 02:16:49;;;;;;;15.50;4.72;;;12.70;99.90;;;;;;5006605;28;20044;-69
2023/05/28 02:19:16;;;;;;;9.02;3.28;;;12.60;99.90;;;;;;5026021;28;20365;-68
2023/05/28 02:21:42;;;;;;;7.88;3.47;;;12.70;99.90;;;;;;5005376;28;20044;-70
2023/05/28 02:24:09;;;;;;;9.00;3.95;;;12.60;99.90;;;;;;5006791;28;20566;-69
2023/05/28 02:26:35;;;;;;;10.88;3.70;;;12.60;99.90;;;;;;5015443;28;20036;-69
2023/05/28 02:29:02;;;;;;;12.63;4.97;;;12.60;99.90;;;;;;5005832;28;20040;-69
2023/05/28 02:31:28;;;;;;;9.60;3.35;;;12.60;99.90;;;;;;5014765;28;20454;-69
2023/05/28 02:33:54;;;;;;;10.65;3.83;;;12.60;99.90;;;;;;5011450;28;20033;-69
2023/05/28 02:36:21;;;;;;;9.80;3.83;;;12.50;99.90;;;;;;4993162;28;20464;-69
2023/05/28 02:38:47;;;;;;;12.55;4.40;;;12.50;99.90;;;;;;5027676;28;20667;-69
2023/05/28 02:41:13;;;;;;;11.48;4.07;;;12.50;99.90;;;;;;5002137;28;20029;-68
2023/05/28 02:43:45;;;;;;;13.48;5.47;;;12.60;99.90;;;;;;4993659;28;20052;-69
2023/05/28 02:46:12;;;;;;;15.48;5.68;;;12.50;99.90;;;;;;5012332;28;20033;-69
2023/05/28 02:48:39;;;;;;;12.05;4.20;;;12.50;99.90;;;;;;5021356;28;20476;-69
2023/05/28 02:51:06;;;;;;;11.38;5.22;;;12.50;99.90;;;;;;5010414;28;20036;-69
2023/05/28 02:53:33;;;;;;;11.10;4.68;;;12.40;99.90;;;;;;5012125;28;20040;-69
2023/05/28 02:56:00;;;;;;;13.60;4.82;;;12.40;99.90;;;;;;5006633;28;20287;-69
2023/05/28 02:58:28;;;;;;;11.77;4.13;;;12.30;99.90;;;;;;4990785;28;20431;-69
2023/05/28 03:00:55;;;;;;;12.23;4.07;;;12.30;99.90;;;;;;5001515;28;20679;-69
2023/05/28 03:03:23;;;;;;;12.40;4.40;;;12.30;99.90;;;;;;4993459;28;20037;-69
2023/05/28 03:05:50;;;;;;;14.30;5.95;;;12.30;99.90;;;;;;4993136;28;20438;-69
2023/05/28 03:08:17;;;;;;;11.45;5.50;;;12.20;99.90;;;;;;4978622;28;20048;-69
2023/05/28 03:10:43;;;;;;;9.55;4.82;;;12.20;99.90;;;;;;4994712;28;21338;-69
2023/05/28 03:13:10;;;;;;;15.88;4.93;;;12.20;99.90;;;;;;5016410;28;20040;-68
2023/05/28 03:15:36;;;;;;;8.20;3.55;;;12.20;99.90;;;;;;5015262;28;20483;-68
2023/05/28 03:18:03;;;;;;;12.30;4.38;;;12.20;99.90;;;;;;5009337;28;20040;-69
2023/05/28 03:20:34;;;;;;;11.98;4.72;;;12.10;99.90;;;;;;5001866;28;20224;-69
2023/05/28 03:23:02;;;;;;;17.50;5.70;;;12.10;99.90;;;;;;5022263;28;20273;-69
2023/05/28 03:25:31;;;;;;;11.65;5.05;;;12.10;99.90;;;;;;4992037;28;20507;-69
2023/05/28 03:27:58;;;;;;;13.88;5.63;;;12.10;99.90;;;;;;4993644;28;20044;-69
2023/05/28 03:30:36;;;;;;;12.25;4.60;;;12.10;99.90;;;;;;5011283;28;20025;-69
2023/05/28 03:33:03;;;;;;;9.80;4.20;;;12.10;99.90;;;;;;5006360;28;20765;-69
2023/05/28 03:35:29;;;;;;;12.20;5.15;;;12.10;99.90;;;;;;5017351;28;20041;-69
2023/05/28 03:37:56;;;;;;;12.05;5.60;;;12.10;99.90;;;;;;5010418;28;20028;-69
2023/05/28 03:40:22;;;;;;;12.90;4.85;;;12.10;99.90;;;;;;5002901;28;20456;-70
2023/05/28 03:42:48;;;;;;;15.45;6.25;;;12.10;99.90;;;;;;5008390;28;20048;-69
2023/05/28 03:45:16;;;;;;;11.77;5.32;;;12.00;99.90;;;;;;4992408;28;20036;-70
2023/05/28 03:47:42;;;;;;;15.20;5.07;;;12.00;99.90;;;;;;4992567;28;20033;-69
2023/05/28 03:50:09;;;;;;;12.38;4.80;;;12.00;99.90;;;;;;5001554;28;20067;-70
2023/05/28 03:52:36;;;;;;;10.27;4.00;;;12.00;99.90;;;;;;5020204;28;20584;-69
2023/05/28 03:55:02;;;;;;;11.05;4.82;;;12.10;99.90;;;;;;5020900;28;20037;-70
2023/05/28 03:57:29;;;;;;;13.93;5.90;;;12.10;99.90;;;;;;5015047;28;20050;-69
2023/05/28 03:59:57;;;;;;;13.48;4.78;;;12.10;99.90;;;;;;5000635;28;20382;-70
2023/05/28 04:02:24;;;;;;;12.38;4.50;;;12.20;99.90;;;;;;5007044;28;20036;-69
2023/05/28 04:04:51;;;;;;;9.15;4.60;;;12.20;99.90;;;;;;5007654;28;20041;-68
2023/05/28 04:07:18;;;;;;;10.55;4.55;;;12.30;99.90;;;;;;5015547;28;20067;-68
2023/05/28 04:09:44;;;;;;;21.42;7.03;;;12.40;99.90;;;;;;5011369;28;20517;-69
2023/05/28 04:12:12;;;;;;;13.23;5.00;;;12.50;99.90;;;;;;5017525;28;20107;-69
2023/05/28 04:14:40;;;;;;;16.42;6.50;;;12.50;99.90;;;;;;5026930;28;20510;-71
2023/05/28 04:17:08;;;;;;;14.15;6.57;;;12.60;99.90;;;;;;5024096;28;20504;-69
2023/05/28 04:19:34;;;;;;;13.63;5.72;;;12.70;99.90;;;;;;5015950;28;20083;-69
2023/05/28 04:22:01;;;;;;;14.35;5.80;;;12.80;99.90;;;;;;4998002;28;20594;-68
2023/05/28 04:24:27;;;;;;;14.85;4.97;;;12.80;99.90;;;;;;5000178;28;20041;-69
2023/05/28 04:26:54;;;;;;;12.35;5.18;;;12.90;99.90;;;;;;5017163;28;20628;-68
2023/05/28 04:29:23;;;;;;;9.60;4.32;;;13.00;99.90;;;;;;5008583;28;20039;-69
2023/05/28 04:31:50;;;;;;;8.13;4.15;;;13.00;99.90;;;;;;5013234;28;20056;-69
2023/05/28 04:34:17;;;;;;;8.68;4.45;;;13.10;99.90;;;;;;5007165;28;20052;-69
2023/05/28 04:36:43;;;;;;;10.40;4.00;;;13.00;99.90;;;;;;5026446;28;20040;-69
2023/05/28 04:39:10;;;;;;;11.10;5.20;;;13.00;99.90;;;;;;5024175;28;20474;-68
2023/05/28 04:41:36;;;;;;;11.68;4.57;;;13.00;99.90;;;;;;4978312;28;22636;-69
2023/05/28 04:44:03;;;;;;;14.77;7.00;;;13.00;99.90;;;;;;5016256;28;20048;-69
2023/05/28 04:46:29;;;;;;;11.32;5.13;;;13.00;99.90;;;;;;5013803;28;20036;-69
2023/05/28 04:48:56;;;;;;;9.65;4.45;;;12.90;99.90;;;;;;4998029;28;20036;-69
2023/05/28 04:51:22;;;;;;;15.00;5.82;;;13.00;99.90;;;;;;5009442;28;20476;-69
2023/05/28 04:53:48;;;;;;;16.85;5.65;;;13.00;99.90;;;;;;5017386;28;20043;-70
2023/05/28 04:56:15;;;;;;;14.52;6.28;;;13.00;99.90;;;;;;5007322;28;20048;-69
2023/05/28 04:58:41;;;;;;;16.60;7.30;;;13.00;99.90;;;;;;5026899;28;20048;-69
2023/05/28 05:01:08;;;;;;;18.30;7.55;;;13.00;99.90;;;;;;4995295;28;20055;-68
2023/05/28 05:03:35;;;;;;;13.95;5.85;;;13.00;99.90;;;;;;4999570;28;20021;-69
2023/05/28 05:06:03;;;;;;;11.43;5.25;;;12.90;99.90;;;;;;4997304;28;20032;-69
2023/05/28 05:08:31;;;;;;;14.27;6.15;;;12.90;99.90;;;;;;5016889;28;20033;-69
2023/05/28 05:10:57;;;;;;;13.32;6.15;;;13.00;99.90;;;;;;5006257;28;20044;-68
2023/05/28 05:13:24;;;;;;;8.52;4.57;;;13.10;99.90;;;;;;5014421;28;20036;-68
2023/05/28 05:15:51;;;;;;;11.57;5.40;;;13.20;99.90;;;;;;5005628;28;21001;-69
2023/05/28 05:18:17;;;;;;;16.55;6.53;;;13.40;99.90;;;;;;5023441;28;20472;-70
2023/05/28 05:20:43;;;;;;;12.82;5.05;;;13.50;99.90;;;;;;5012052;28;20036;-69
2023/05/28 05:23:10;;;;;;;13.60;5.45;;;13.60;99.90;;;;;;5012850;28;20029;-69
2023/05/28 05:25:36;;;;;;;18.17;8.80;;;13.70;99.90;;;;;;4992895;28;20037;-69
2023/05/28 05:28:02;;;;;;;15.45;8.20;;;13.80;99.90;;;;;;5025699;28;21469;-69
2023/05/28 05:30:31;;;;;;;15.73;7.55;;;13.90;99.90;;;;;;5001512;28;20037;-69
2023/05/28 05:32:58;;;;;;;15.98;6.07;;;14.00;99.90;;;;;;5010954;28;20037;-69
2023/05/28 05:35:26;;;;;;;13.27;5.82;;;14.10;99.90;;;;;;5017175;28;20519;-69
2023/05/28 05:38:11;;;;;;;11.68;4.80;;;14.20;99.90;;;;;;5020005;28;20048;-70
2023/05/28 05:40:50;;;;;;;11.85;5.28;;;14.30;99.90;;;;;;4993960;28;20395;-69
2023/05/28 05:43:35;;;;;;;13.40;5.78;;;14.40;99.90;;;;;;5012636;28;20028;-68
2023/05/28 05:46:01;;;;;;;12.52;4.80;;;14.60;99.90;;;;;;5009815;28;20037;-69
2023/05/28 05:48:28;;;;;;;10.90;5.60;;;14.80;99.90;;;;;;5009491;28;20078;-69
2023/05/28 05:50:55;;;;;;;10.05;4.72;;;14.90;99.90;;;;;;5002794;28;20060;-69
2023/05/28 05:53:22;;;;;;;13.15;4.93;;;14.90;99.90;;;;;;5011219;28;20053;-70
2023/05/28 05:55:49;;;;;;;13.88;6.43;;;15.00;99.90;;;;;;5003912;28;20033;-69
2023/05/28 05:58:15;;;;;;;9.18;4.57;;;15.10;99.90;;;;;;5021119;28;20343;-68
2023/05/28 06:00:42;;;;;;;11.77;4.60;;;15.10;99.90;;;;;;4994334;28;20041;-69
2023/05/28 06:03:10;;;;;;;13.80;4.13;;;15.10;99.90;;;;;;5011282;28;20041;-69
2023/05/28 06:05:56;;;;;;;9.60;3.70;;;15.20;99.90;;;;;;5010709;28;20029;-69
2023/05/28 06:08:42;;;;;;;10.52;3.60;;;15.30;99.90;;;;;;5024774;28;20075;-68
2023/05/28 06:11:14;;;;;;;11.27;4.65;;;15.40;99.90;;;;;;4986791;28;20037;-69
2023/05/28 06:13:41;;;;;;;11.32;5.15;;;15.60;99.90;;;;;;5012403;28;20040;-69
2023/05/28 06:16:07;;;;;;;15.93;6.40;;;15.90;99.90;;;;;;4998154;28;20041;-69
2023/05/28 06:18:34;;;;;;;13.48;5.13;;;16.30;99.90;;;;;;5004224;28;20037;-69
2023/05/28 06:21:03;;;;;;;9.20;4.13;;;16.70;99.90;;;;;;5011865;28;20041;-69
2023/05/28 06:23:35;;;;;;;10.93;4.80;;;16.80;99.90;;;;;;5012562;28;20033;-67
2023/05/28 06:26:03;;;;;;;9.80;4.38;;;16.90;99.90;;;;;;5008797;28;20025;-68
2023/05/28 06:28:29;;;;;;;10.27;4.97;;;16.80;99.90;;;;;;5007449;28;21279;-67
2023/05/28 06:30:58;;;;;;;8.43;3.95;;;16.70;99.90;;;;;;5002650;28;20428;-67
2023/05/28 06:33:24;;;;;;;9.88;3.90;;;16.60;99.90;;;;;;5025224;28;20044;-68
2023/05/28 06:35:51;;;;;;;9.07;3.78;;;16.50;99.90;;;;;;4994309;28;20037;-67
2023/05/28 06:38:18;;;;;;;11.73;5.70;;;16.50;99.90;;;;;;4986689;28;20794;-67
2023/05/28 06:40:44;;;;;;;11.55;5.60;;;16.40;99.90;;;;;;5026043;28;20036;-68
2023/05/28 06:43:11;;;;;;;8.23;3.72;;;16.30;99.90;;;;;;5015663;28;20036;-67
2023/05/28 06:46:06;;;;;;;12.63;5.60;;;16.30;99.90;;;;;;4954554;28;20557;-67
2023/05/28 06:48:33;;;;;;;11.38;4.15;;;16.10;99.90;;;;;;5010202;28;20040;-67
2023/05/28 06:50:59;;;;;;;13.20;4.60;;;16.00;99.90;;;;;;4985453;28;20040;-67
2023/05/28 06:53:26;;;;;;;11.13;5.05;;;16.00;99.90;;;;;;5026144;28;20045;-67
2023/05/28 06:55:52;;;;;;;14.10;5.45;;;16.00;99.90;;;;;;5009882;28;20048;-68
2023/05/28 06:58:45;;;;;;;10.10;4.77;;;16.00;99.90;;;;;;5013325;28;20056;-68
2023/05/28 07:01:24;;;;;;;11.52;4.95;;;16.10;99.90;;;;;;5012760;28;20302;-68
2023/05/28 07:03:59;;;;;;;12.05;4.93;;;16.10;99.90;;;;;;5020884;28;20036;-68
2023/05/28 07:06:33;;;;;;;10.80;4.45;;;16.40;99.90;;;;;;5010762;28;20041;-67
2023/05/28 07:09:00;;;;;;;13.75;5.53;;;16.80;99.90;;;;;;5009718;28;20044;-67
2023/05/28 07:11:26;;;;;;;12.07;3.65;;;17.20;99.90;;;;;;5000656;28;21423;-68
2023/05/28 07:13:54;;;;;;;9.70;3.72;;;17.70;99.90;;;;;;4989724;28;20500;-68
2023/05/28 07:16:22;;;;;;;9.65;4.22;;;18.10;99.90;;;;;;5006538;28;20048;-67
2023/05/28 07:18:49;;;;;;;11.40;5.13;;;18.40;99.90;;;;;;5011016;28;20044;-68
2023/05/28 07:21:16;;;;;;;10.52;4.78;;;18.60;99.90;;;;;;4995249;28;20024;-68
2023/05/28 07:23:45;;;;;;;11.40;4.40;;;18.90;99.90;;;;;;5000984;28;20044;-70
2023/05/28 07:26:12;;;;;;;10.20;4.75;;;19.00;99.90;;;;;;5010447;28;20375;-70
2023/05/28 07:28:40;;;;;;;12.60;5.35;;;19.30;99.90;;;;;;5010199;28;20037;-70
2023/05/28 07:31:07;;;;;;;12.13;5.47;;;19.50;99.90;;;;;;5001953;28;20021;-70
2023/05/28 07:33:33;;;;;;;10.45;3.83;;;19.70;99.90;;;;;;5009151;28;20033;-67
2023/05/28 07:36:00;;;;;;;5.93;3.47;;;19.80;99.90;;;;;;5018388;28;20033;-67
2023/05/28 07:38:27;;;;;;;12.00;4.28;;;19.90;99.90;;;;;;5012798;28;20044;-68
2023/05/28 07:40:57;;;;;;;8.73;3.47;;;20.10;99.90;;;;;;5011957;28;20033;-67
2023/05/28 07:43:33;;;;;;;13.40;6.95;;;20.20;99.90;;;;;;5018446;28;20041;-68
2023/05/28 07:46:04;;;;;;;8.83;3.23;;;20.30;99.90;;;;;;5009989;28;20032;-68
2023/05/28 07:48:38;;;;;;;9.05;3.42;;;20.50;99.90;;;;;;5002898;28;20049;-68
2023/05/28 07:51:31;;;;;;;9.35;3.13;;;20.70;99.90;;;;;;4988925;28;21893;-68
2023/05/28 07:54:04;;;;;;;9.30;3.03;;;20.90;99.90;;;;;;5004544;28;20028;-67
2023/05/28 07:56:31;;;;;;;7.85;3.65;;;21.20;99.90;;;;;;4991402;28;20033;-67
2023/05/28 07:58:58;;;;;;;9.13;3.78;;;21.30;99.90;;;;;;5012696;28;20040;-68
2023/05/28 08:01:24;;;;;;;6.90;3.17;;;21.40;99.90;;;;;;5011157;28;20051;-68
2023/05/28 08:03:54;;;;;;;5.90;2.35;;;21.70;99.90;;;;;;5016606;28;20052;-68
2023/05/28 08:06:23;;;;;;;6.00;1.88;;;21.90;99.30;;;;;;5011378;28;20041;-68
2023/05/28 08:08:49;;;;;;;9.95;3.47;;;22.10;99.10;;;;;;5008091;28;20032;-68
2023/05/28 08:11:16;;;;;;;6.68;2.35;;;22.40;97.20;;;;;;4982226;28;20048;-70
2023/05/28 08:13:43;;;;;;;5.75;1.98;;;22.40;96.90;;;;;;5003733;28;20048;-68
2023/05/28 08:16:11;;;;;;;6.75;2.17;;;22.60;96.50;;;;;;5007388;28;20056;-68
2023/05/28 08:19:13;;;;;;;6.90;2.58;;;22.80;95.60;;;;;;4995488;28;20225;-69
2023/05/28 08:21:40;;;;;;;8.02;2.70;;;22.80;94.50;;;;;;5013869;28;20037;-68
2023/05/28 08:24:10;;;;;;;6.30;2.38;;;22.80;94.10;;;;;;5020750;28;20036;-69
2023/05/28 08:26:37;;;;;;;7.65;2.95;;;22.80;93.60;;;;;;4996853;28;20036;-68
2023/05/28 08:29:04;;;;;;;7.78;2.90;;;22.80;93.90;;;;;;5008756;28;20037;-68
2023/05/28 08:31:35;;;;;;;4.53;1.95;;;22.70;93.70;;;;;;5002427;28;20697;-69
2023/05/28 08:34:13;;;;;;;12.10;4.22;;;22.80;93.60;;;;;;5010494;28;20029;-68
2023/05/28 08:36:39;;;;;;;7.57;2.45;;;22.90;93.10;;;;;;5009274;28;20511;-68
2023/05/28 08:39:11;;;;;;;6.55;2.17;;;23.10;92.80;;;;;;5007854;28;20033;-68
2023/05/28 08:41:39;;;;;;;6.10;1.80;;;23.20;92.80;;;;;;5009548;28;20041;-69
2023/05/28 08:44:06;;;;;;;6.38;2.53;;;23.30;92.70;;;;;;5016930;28;20609;-69
2023/05/28 08:46:33;;;;;;;7.68;2.63;;;23.50;92.10;;;;;;5018502;28;20548;-69
2023/05/28 08:49:19;;;;;;;13.38;4.05;;;23.60;91.50;;;;;;5008304;28;20033;-68
2023/05/28 08:51:52;;;;;;;8.57;3.20;;;23.60;90.50;;;;;;5006880;28;20508;-69
2023/05/28 08:54:20;;;;;;;7.75;3.33;;;23.50;90.00;;;;;;5011223;28;20048;-69
2023/05/28 08:56:47;;;;;;;10.82;3.05;;;23.50;90.20;;;;;;5014194;28;20045;-70
2023/05/28 08:59:16;;;;;;;7.88;2.92;;;23.60;90.30;;;;;;5011292;28;20037;-69
2023/05/28 09:01:42;;;;;;;8.40;2.97;;;23.70;90.20;;;;;;4996796;28;20049;-70
2023/05/28 09:04:13;;;;;;;5.40;2.17;;;23.90;90.20;;;;;;4988000;28;20032;-68
2023/05/28 09:06:45;;;;;;;12.35;2.90;;;24.10;90.10;;;;;;5019995;28;20143;-70
2023/05/28 09:09:19;;;;;;;11.20;3.67;;;24.20;89.60;;;;;;4994141;28;20043;-68
2023/05/28 09:11:48;;;;;;;7.13;3.13;;;24.40;88.10;;;;;;5005079;28;20033;-69
2023/05/28 09:14:18;;;;;;;7.68;3.15;;;24.40;87.40;;;;;;4996770;28;20489;-70
2023/05/28 09:16:45;;;;;;;9.07;3.28;;;24.40;86.00;;;;;;5009857;28;20528;-69
2023/05/28 09:19:17;;;;;;;12.48;2.72;;;24.40;85.30;;;;;;4994484;28;20499;-69
2023/05/28 09:21:57;;;;;;;7.97;2.78;;;24.50;84.40;;;;;;5005221;28;20083;-69
2023/05/28 09:24:33;;;;;;;8.25;3.00;;;24.70;84.70;;;;;;5035576;28;20037;-69
2023/05/28 09:27:12;;;;;;;7.25;2.22;;;24.80;83.50;;;;;;5033097;28;20029;-69
2023/05/28 09:29:40;;;;;;;7.38;2.30;;;24.80;81.60;;;;;;5009696;28;20616;-69
2023/05/28 09:32:06;;;;;;;5.97;2.38;;;24.90;81.20;;;;;;5012389;28;20044;-70
2023/05/28 09:34:33;;;;;;;8.55;1.70;;;25.00;81.40;;;;;;4996384;28;20032;-68
2023/05/28 09:37:00;;;;;;;8.25;2.13;;;25.10;79.70;;;;;;5014467;28;20044;-70
2023/05/28 09:39:27;;;;;;;7.18;2.17;;;25.20;79.30;;;;;;4992672;28;20044;-69
2023/05/28 09:42:09;;;;;;;7.45;2.97;;;25.30;79.10;;;;;;5012757;28;20484;-67
2023/05/28 09:44:37;;;;;;;5.45;2.40;;;25.50;77.50;;;;;;5020407;28;20041;-69
2023/05/28 09:47:15;;;;;;;10.48;3.67;;;25.50;77.20;;;;;;5023803;28;20036;-67
2023/05/28 09:49:44;;;;;;;8.68;3.15;;;25.60;76.40;;;;;;5013816;28;20492;-68
2023/05/28 09:52:20;;;;;;;5.32;2.35;;;25.40;77.20;;;;;;5012051;28;20049;-68
2023/05/28 09:54:53;;;;;;;6.82;2.35;;;25.40;77.90;;;;;;5012164;28;20558;-68
2023/05/28 09:57:29;;;;;;;8.27;3.05;;;25.50;78.00;;;;;;5014608;28;20488;-68
2023/05/28 09:59:56;;;;;;;6.80;2.67;;;25.70;78.20;;;;;;5003196;28;20056;-68
2023/05/28 10:02:27;;;;;;;6.57;2.85;;;25.80;78.00;;;;;;5014165;28;20036;-68
2023/05/28 10:04:56;;;;;;;9.25;3.08;;;25.80;77.60;;;;;;5017790;28;20032;-68
2023/05/28 10:07:25;;;;;;;8.88;3.40;;;25.60;78.10;;;;;;5021321;28;20511;-67
2023/05/28 10:09:54;;;;;;;7.80;3.30;;;25.50;78.20;;;;;;4996178;28;20627;-69
2023/05/28 10:12:25;;;;;;;8.73;3.97;;;25.30;78.00;;;;;;5012333;28;20043;-69
2023/05/28 10:14:52;;;;;;;9.20;2.80;;;25.00;77.70;;;;;;5013196;28;20033;-68
2023/05/28 10:17:19;;;;;;;9.40;3.78;;;24.80;78.40;;;;;;5012041;28;20049;-69
2023/05/28 10:19:46;;;;;;;10.93;3.60;;;24.70;79.20;;;;;;5005597;28;20405;-67
2023/05/28 10:22:13;;;;;;;7.57;3.47;;;24.70;79.00;;;;;;5012688;28;20045;-68
2023/05/28 10:24:40;;;;;;;7.05;3.28;;;24.70;78.90;;;;;;4983014;28;20048;-68
2023/05/28 10:27:07;;;;;;;13.18;4.15;;;24.60;78.30;;;;;;5021467;28;20044;-68
2023/05/28 10:29:41;;;;;;;12.93;4.95;;;24.70;78.80;;;;;;5001600;28;20052;-68
2023/05/28 10:32:08;;;;;;;9.57;3.42;;;24.90;78.80;;;;;;5013695;28;20037;-68
2023/05/28 10:34:36;;;;;;;8.40;3.45;;;25.10;78.80;;;;;;5011181;28;20044;-69
2023/05/28 10:37:06;;;;;;;8.73;3.60;;;25.40;77.70;;;;;;5020021;28;20044;-69
2023/05/28 10:39:40;;;;;;;7.72;2.97;;;25.60;76.30;;;;;;5022608;28;20049;-68
2023/05/28 10:42:08;;;;;;;7.97;3.25;;;25.80;75.80;;;;;;5010851;28;20404;-68
2023/05/28 10:44:51;;;;;;;9.95;3.10;;;26.10;75.30;;;;;;5012903;28;20042;-68
2023/05/28 10:47:18;;;;;;;8.25;4.00;;;26.40;74.40;;;;;;5019985;28;20033;-67
2023/05/28 10:50:21;;;;;;;11.00;4.05;;;26.50;73.90;;;;;;5017267;28;20640;-68
2023/05/28 10:53:04;;;;;;;11.05;3.95;;;26.60;73.70;;;;;;4987564;28;20064;-68
2023/05/28 10:55:49;;;;;;;10.20;3.30;;;26.70;73.90;;;;;;5010940;28;20499;-69
2023/05/28 10:58:36;;;;;;;6.32;2.30;;;27.00;74.10;;;;;;5010960;28;20740;-69
2023/05/28 11:01:23;;;;;;;5.40;2.75;;;27.20;72.90;;;;;;4986212;28;20055;-68
2023/05/28 11:03:56;;;;;;;9.52;3.80;;;27.30;71.80;;;;;;5010930;28;21105;-68
2023/05/28 11:06:26;;;;;;;8.15;3.75;;;27.50;71.40;;;;;;5010736;28;20037;-69
2023/05/28 11:08:52;;;;;;;9.32;3.83;;;27.60;71.20;;;;;;5018792;28;20143;-68
2023/05/28 11:11:19;;;;;;;8.35;3.03;;;27.80;71.00;;;;;;5010045;28;20822;-69
2023/05/28 11:13:47;;;;;;;10.10;4.32;;;27.70;70.30;;;;;;5013265;28;22167;-70
2023/05/28 11:16:15;;;;;;;7.50;3.20;;;27.80;70.20;;;;;;5005842;28;20036;-70
2023/05/28 11:19:02;;;;;;;11.65;4.35;;;28.00;70.70;;;;;;5005410;28;20033;-74
2023/05/28 11:21:28;;;;;;;7.30;3.33;;;28.40;69.80;;;;;;4999486;28;20042;-69
2023/05/28 11:24:02;;;;;;;11.05;3.08;;;28.60;69.30;;;;;;4986022;28;20071;-68
2023/05/28 11:26:28;;;;;;;5.22;2.30;;;28.70;68.50;;;;;;5008239;28;20041;-69
2023/05/28 11:28:55;;;;;;;8.50;3.40;;;29.00;68.50;;;;;;5016550;28;20132;-69
2023/05/28 11:31:21;;;;;;;8.15;3.08;;;29.00;65.50;;;;;;5010797;28;20029;-68
2023/05/28 11:33:50;;;;;;;9.05;3.17;;;29.00;65.20;;;;;;5013441;28;20040;-71
2023/05/28 11:36:19;;;;;;;8.93;2.70;;;29.20;64.70;;;;;;5021005;28;20735;-70
2023/05/28 11:38:46;;;;;;;9.27;5.38;;;29.40;64.90;;;;;;5002697;28;20428;-71
2023/05/28 11:41:12;;;;;;;9.07;3.33;;;29.70;64.10;;;;;;4981087;28;20041;-72
2023/05/28 11:43:39;;;;;;;8.02;3.42;;;29.90;63.10;;;;;;4998811;28;21266;-70
2023/05/28 11:46:05;;;;;;;11.55;5.35;;;30.30;61.60;;;;;;5004192;28;21166;-70
2023/05/28 11:48:37;;;;;;;13.23;4.78;;;30.50;61.00;;;;;;5007341;28;20028;-70
2023/05/28 11:51:05;;;;;;;9.23;3.00;;;30.80;60.20;;;;;;5009857;28;20047;-70
2023/05/28 11:53:42;;;;;;;8.00;3.22;;;31.00;59.70;;;;;;5014649;28;20041;-67
2023/05/28 11:56:11;;;;;;;7.25;2.78;;;31.10;59.70;;;;;;5011649;28;21112;-68
2023/05/28 11:58:40;;;;;;;6.65;2.05;;;31.30;59.30;;;;;;4994213;28;20239;-69
2023/05/28 12:01:07;;;;;;;6.65;2.30;;;31.30;58.10;;;;;;5002852;28;20037;-68
2023/05/28 12:03:34;;;;;;;8.07;2.83;;;31.10;57.60;;;;;;5006547;28;20435;-68
2023/05/28 12:06:01;;;;;;;8.38;2.90;;;31.20;57.80;;;;;;5006849;28;20535;-67
2023/05/28 12:08:27;;;;;;;9.93;2.35;;;31.30;57.80;;;;;;5007867;28;20037;-68
2023/05/28 12:11:00;;;;;;;6.53;2.30;;;31.40;57.50;;;;;;5003417;28;20490;-68
2023/05/28 12:13:33;;;;;;;9.30;2.45;;;31.40;56.60;;;;;;5015770;28;20040;-69
2023/05/28 12:16:12;;;;;;;6.85;3.08;;;31.20;56.60;;;;;;5011715;28;20040;-67
2023/05/28 12:18:42;;;;;;;6.38;2.85;;;31.10;56.40;;;;;;5005936;28;20041;-67
2023/05/28 12:21:12;;;;;;;6.00;2.53;;;31.10;56.10;;;;;;5000791;28;20037;-68
2023/05/28 12:23:39;;;;;;;7.05;2.67;;;30.90;56.50;;;;;;4976078;28;20436;-67
2023/05/28 12:26:11;;;;;;;5.72;2.47;;;30.80;56.80;;;;;;5006527;28;20047;-68
2023/05/28 12:28:39;;;;;;;7.50;2.42;;;30.80;56.70;;;;;;5008939;28;20044;-69
2023/05/28 12:31:07;;;;;;;6.32;2.33;;;30.80;56.30;;;;;;5010953;28;20037;-68
2023/05/28 12:33:33;;;;;;;5.50;2.33;;;30.90;56.50;;;;;;5002931;28;20044;-70
2023/05/28 12:36:00;;;;;;;3.97;2.08;;;31.00;55.50;;;;;;5021013;28;20476;-69
2023/05/28 12:38:26;;;;;;;5.35;2.10;;;31.20;55.30;;;;;;5016685;28;20028;-69
2023/05/28 12:40:53;;;;;;;7.35;2.75;;;31.30;54.80;;;;;;5004539;28;20051;-69
2023/05/28 12:43:21;;;;;;;7.15;3.15;;;31.50;54.50;;;;;;5011977;28;20043;-69
2023/05/28 12:45:47;;;;;;;5.70;2.60;;;31.60;54.40;;;;;;5011808;28;20041;-69
2023/05/28 12:48:14;;;;;;;5.10;2.45;;;31.50;54.00;;;;;;5014026;28;20037;-68
2023/05/28 12:50:41;;;;;;;8.88;2.58;;;31.50;54.10;;;;;;5005658;28;20056;-69